Time;durP1;ratioP1;P1;durP2;ratioP2;P2;SDS_P1;SDS_P2;PMS_P1;PMS_P2;Temp;Humidity;BMP_temperature;BMP_pressure;BME280_temperature;BME280_humidity;BME280_pressure;Samples;Min_cycle;Max_cycle;Signal;HPM_P1;HPM_P2
2021/05/10 00:00:57;;;;;;;2.10;1.60;;;15.90;65.80;;;;;;6168488;23;20366;-75
2021/05/10 00:03:23;;;;;;;1.95;1.70;;;15.90;65.80;;;;;;6168219;23;20017;-75
2021/05/10 00:05:52;;;;;;;2.28;1.75;;;15.90;65.80;;;;;;6167700;23;20009;-75
2021/05/10 00:08:21;;;;;;;2.92;1.90;;;15.90;65.90;;;;;;6158247;23;20328;-75
2021/05/10 00:10:48;;;;;;;2.30;1.90;;;15.90;65.80;;;;;;6157614;23;20025;-75
2021/05/10 00:13:16;;;;;;;2.10;1.65;;;15.90;65.80;;;;;;6167922;23;20021;-74
2021/05/10 00:15:43;;;;;;;2.67;1.98;;;15.90;66.30;;;;;;6168145;23;20337;-75
2021/05/10 00:18:16;;;;;;;3.08;2.10;;;15.90;65.70;;;;;;6158049;23;20025;-75
2021/05/10 00:20:44;;;;;;;2.75;1.88;;;15.90;65.70;;;;;;6157870;23;20037;-75
2021/05/10 00:23:11;;;;;;;2.28;1.60;;;15.90;65.70;;;;;;6158042;23;20080;-75
2021/05/10 00:25:38;;;;;;;1.80;1.58;;;15.90;65.80;;;;;;6167786;23;20061;-74
2021/05/10 00:28:06;;;;;;;2.63;2.15;;;15.90;65.80;;;;;;6167517;23;20427;-75
2021/05/10 00:30:32;;;;;;;2.35;1.80;;;15.90;65.80;;;;;;6167924;23;20020;-75
2021/05/10 00:32:58;;;;;;;2.67;2.05;;;15.90;65.80;;;;;;6167552;23;20298;-75
2021/05/10 00:35:25;;;;;;;2.67;1.80;;;15.90;65.80;;;;;;6167430;23;20347;-75
2021/05/10 00:37:52;;;;;;;2.28;1.95;;;15.90;65.80;;;;;;6157931;23;20092;-74
2021/05/10 00:40:21;;;;;;;2.25;2.05;;;15.90;65.80;;;;;;6157713;23;20097;-74
2021/05/10 00:42:47;;;;;;;2.30;1.85;;;15.90;66.00;;;;;;6164116;23;20032;-75
2021/05/10 00:45:13;;;;;;;2.05;1.85;;;15.90;65.90;;;;;;6158175;23;20025;-74
2021/05/10 00:47:40;;;;;;;1.80;1.70;;;15.90;65.90;;;;;;6157811;23;20052;-75
2021/05/10 00:50:07;;;;;;;2.03;1.80;;;15.90;65.90;;;;;;6158215;23;20021;-75
2021/05/10 00:52:34;;;;;;;2.47;1.90;;;15.90;65.90;;;;;;6167825;23;20013;-75
2021/05/10 00:55:00;;;;;;;1.70;1.60;;;15.90;65.90;;;;;;6168354;23;20076;-74
2021/05/10 00:57:29;;;;;;;2.00;1.80;;;15.90;65.90;;;;;;6167430;23;20343;-75
2021/05/10 01:00:12;;;;;;;2.85;2.03;;;15.90;65.90;;;;;;6157887;23;20152;-75
2021/05/10 01:02:38;;;;;;;2.17;1.95;;;15.90;65.90;;;;;;6157774;23;20014;-74
2021/05/10 01:05:06;;;;;;;1.88;1.77;;;15.90;65.90;;;;;;6167871;23;20013;-75
2021/05/10 01:07:32;;;;;;;2.17;1.70;;;15.90;65.90;;;;;;6157352;23;20473;-75
2021/05/10 01:09:59;;;;;;;2.42;1.92;;;15.90;66.00;;;;;;6158103;23;20021;-75
2021/05/10 01:12:24;;;;;;;2.47;2.28;;;15.90;66.00;;;;;;6167371;23;20028;-74
2021/05/10 01:14:50;;;;;;;2.30;2.10;;;15.90;66.00;;;;;;6167741;23;20384;-75
2021/05/10 01:17:38;;;;;;;1.83;1.73;;;15.90;66.00;;;;;;6136705;23;20013;-75
2021/05/10 01:20:15;;;;;;;2.25;1.90;;;15.90;66.00;;;;;;6167225;23;20084;-75
2021/05/10 01:22:55;;;;;;;2.33;1.92;;;15.90;66.00;;;;;;6169975;23;20025;-74
2021/05/10 01:25:31;;;;;;;2.47;1.90;;;15.90;66.00;;;;;;6169519;23;20024;-75
2021/05/10 01:27:59;;;;;;;2.40;2.20;;;15.90;66.00;;;;;;6159907;23;20013;-74
2021/05/10 01:30:38;;;;;;;2.50;2.10;;;15.90;66.00;;;;;;6143858;23;20010;-75
2021/05/10 01:33:06;;;;;;;2.08;1.67;;;15.90;66.00;;;;;;6160625;23;20020;-75
2021/05/10 01:35:38;;;;;;;2.30;2.10;;;15.90;66.00;;;;;;6169766;23;20013;-75
2021/05/10 01:38:05;;;;;;;1.73;1.52;;;15.90;66.00;;;;;;6169466;23;20009;-75
2021/05/10 01:40:32;;;;;;;3.33;1.95;;;15.90;66.00;;;;;;6169164;23;20072;-75
2021/05/10 01:42:58;;;;;;;1.88;1.73;;;15.90;66.00;;;;;;6169158;23;20346;-75
2021/05/10 01:45:24;;;;;;;1.95;1.75;;;15.90;66.00;;;;;;6170014;23;20013;-75
2021/05/10 01:47:59;;;;;;;2.17;1.80;;;15.90;66.00;;;;;;6169458;23;20084;-75
2021/05/10 01:50:31;;;;;;;2.13;1.80;;;15.90;66.00;;;;;;6163553;23;20014;-75
2021/05/10 01:52:57;;;;;;;2.17;1.98;;;15.90;66.00;;;;;;6159721;23;20009;-75
2021/05/10 01:55:24;;;;;;;2.50;2.00;;;15.90;66.00;;;;;;6169213;23;20354;-75
2021/05/10 01:57:53;;;;;;;2.10;1.75;;;15.90;66.00;;;;;;6168902;23;20354;-75
2021/05/10 02:00:24;;;;;;;3.63;2.40;;;15.90;66.00;;;;;;6159455;23;20104;-75
2021/05/10 02:02:50;;;;;;;2.45;1.95;;;15.90;66.10;;;;;;6169231;23;20292;-75
2021/05/10 02:05:21;;;;;;;2.65;1.80;;;15.90;66.00;;;;;;6169206;23;20020;-75
2021/05/10 02:07:53;;;;;;;2.85;1.92;;;15.90;66.00;;;;;;6169151;23;20010;-75
2021/05/10 02:10:49;;;;;;;2.80;2.13;;;15.90;66.00;;;;;;6169145;23;20029;-74
2021/05/10 02:13:19;;;;;;;1.90;1.42;;;15.90;66.10;;;;;;6135438;23;20028;-75
2021/05/10 02:15:47;;;;;;;1.98;1.75;;;15.90;66.10;;;;;;6169208;23;20013;-75
2021/05/10 02:18:20;;;;;;;2.05;1.77;;;15.90;66.00;;;;;;6133822;23;20013;-75
2021/05/10 02:20:47;;;;;;;3.08;2.30;;;15.90;66.00;;;;;;6160017;23;20018;-74
2021/05/10 02:23:19;;;;;;;2.05;1.50;;;15.90;66.10;;;;;;6169088;23;20092;-75
2021/05/10 02:25:47;;;;;;;2.22;2.03;;;15.90;66.00;;;;;;6143329;23;20051;-75
2021/05/10 02:28:16;;;;;;;2.47;1.70;;;15.90;66.10;;;;;;6159026;23;20311;-75
2021/05/10 02:30:43;;;;;;;2.10;1.90;;;16.00;66.10;;;;;;6168694;23;20088;-74
2021/05/10 02:33:13;;;;;;;1.98;1.88;;;15.90;66.10;;;;;;6158399;23;20048;-75
2021/05/10 02:35:48;;;;;;;2.03;1.80;;;15.90;66.10;;;;;;6158940;23;20021;-74
2021/05/10 02:38:15;;;;;;;2.60;1.60;;;15.90;66.10;;;;;;6159448;23;20013;-75
2021/05/10 02:40:43;;;;;;;2.42;2.20;;;15.90;66.10;;;;;;6158742;23;20013;-74
2021/05/10 02:43:18;;;;;;;2.95;2.00;;;15.90;66.10;;;;;;6158824;23;20084;-75
2021/05/10 02:45:45;;;;;;;1.85;1.67;;;15.90;66.10;;;;;;6159685;23;20013;-74
2021/05/10 02:48:11;;;;;;;2.08;1.60;;;15.90;66.10;;;;;;6159378;23;20032;-75
2021/05/10 02:50:37;;;;;;;3.25;2.13;;;15.90;66.10;;;;;;6161997;23;20104;-74
2021/05/10 02:53:03;;;;;;;2.33;1.98;;;15.90;66.10;;;;;;6169080;23;20021;-74
2021/05/10 02:55:29;;;;;;;1.70;1.55;;;15.90;66.10;;;;;;6159069;23;20084;-75
2021/05/10 02:57:55;;;;;;;2.53;1.92;;;15.90;66.10;;;;;;6168655;23;20320;-75
2021/05/10 03:00:26;;;;;;;1.73;1.63;;;15.90;66.80;;;;;;6159267;23;20017;-74
2021/05/10 03:02:53;;;;;;;2.90;1.90;;;15.90;66.10;;;;;;6168523;23;20013;-74
2021/05/10 03:05:20;;;;;;;3.13;2.03;;;15.90;66.10;;;;;;6168612;23;20021;-75
2021/05/10 03:07:46;;;;;;;2.28;1.80;;;15.90;66.10;;;;;;6168914;23;20465;-75
2021/05/10 03:10:21;;;;;;;2.63;2.05;;;15.90;66.20;;;;;;6168207;23;20041;-75
2021/05/10 03:12:48;;;;;;;2.67;1.85;;;15.90;66.10;;;;;;6169144;23;20014;-74
2021/05/10 03:15:19;;;;;;;2.38;2.03;;;15.90;66.10;;;;;;6158394;23;20435;-75
2021/05/10 03:17:45;;;;;;;2.40;2.00;;;15.90;66.10;;;;;;6168818;23;20025;-75
2021/05/10 03:20:15;;;;;;;1.88;1.73;;;15.90;66.20;;;;;;6168052;23;20343;-75
2021/05/10 03:22:41;;;;;;;3.15;2.05;;;15.90;66.10;;;;;;6158741;23;20076;-75
2021/05/10 03:25:09;;;;;;;2.50;1.80;;;15.90;66.10;;;;;;6158484;23;20028;-74
2021/05/10 03:27:40;;;;;;;2.30;2.10;;;15.90;66.10;;;;;;6158359;23;20017;-75
2021/05/10 03:30:14;;;;;;;2.47;2.00;;;15.90;66.10;;;;;;6159056;23;20017;-75
2021/05/10 03:32:40;;;;;;;;;;;15.90;66.10;;;;;;6169145;23;20017;-75
2021/05/10 03:35:07;;;;;;;2.25;2.03;;;15.90;66.10;;;;;;6159266;23;20189;-75
2021/05/10 03:37:33;;;;;;;2.60;1.85;;;15.90;66.20;;;;;;6168270;23;20010;-75
2021/05/10 03:39:59;;;;;;;2.30;1.67;;;15.90;66.10;;;;;;6168110;23;20045;-75
2021/05/10 03:42:25;;;;;;;2.30;1.85;;;15.90;66.10;;;;;;6168428;23;20311;-75
2021/05/10 03:44:53;;;;;;;2.50;1.95;;;15.90;66.20;;;;;;6168542;23;20013;-75
2021/05/10 03:47:19;;;;;;;4.00;1.67;;;15.90;66.20;;;;;;6167839;23;20431;-74
2021/05/10 03:49:46;;;;;;;2.45;1.77;;;15.90;66.20;;;;;;6158036;23;20399;-75
2021/05/10 03:52:12;;;;;;;2.08;1.83;;;15.90;66.20;;;;;;6158659;23;20025;-74
2021/05/10 03:54:39;;;;;;;2.40;2.20;;;15.90;66.20;;;;;;6158527;23;20037;-74
2021/05/10 03:57:06;;;;;;;1.83;1.63;;;15.90;66.10;;;;;;6158855;23;20022;-75
2021/05/10 03:59:33;;;;;;;2.30;2.00;;;15.90;66.20;;;;;;6167660;23;20084;-74
2021/05/10 04:02:02;;;;;;;1.88;1.70;;;15.90;66.10;;;;;;6158497;23;20044;-74
2021/05/10 04:04:41;;;;;;;2.10;1.80;;;15.90;66.10;;;;;;6167940;23;20084;-75
2021/05/10 04:07:19;;;;;;;2.17;1.98;;;15.90;66.00;;;;;;6168078;23;20039;-75
2021/05/10 04:15:17;;;;;;;1.98;1.70;;;15.90;66.00;;;;;;6168749;23;20043;-75
2021/05/10 04:17:43;;;;;;;2.35;1.85;;;15.90;66.00;;;;;;6168014;23;20084;-74
2021/05/10 04:20:09;;;;;;;2.55;2.20;;;15.90;66.00;;;;;;6167597;23;20095;-74
2021/05/10 04:22:37;;;;;;;2.25;1.88;;;15.90;66.00;;;;;;6158584;23;20009;-74
2021/05/10 04:25:03;;;;;;;2.33;1.88;;;15.90;66.10;;;;;;6167779;23;20017;-75
2021/05/10 04:27:29;;;;;;;1.60;1.40;;;15.90;66.10;;;;;;6168616;23;20021;-75
2021/05/10 04:29:54;;;;;;;2.15;1.80;;;15.90;66.70;;;;;;6167242;23;20049;-75
2021/05/10 04:32:20;;;;;;;2.08;1.88;;;16.00;66.10;;;;;;6167511;23;20423;-75
2021/05/10 04:34:48;;;;;;;2.58;2.10;;;15.90;66.10;;;;;;6167890;23;20037;-75
2021/05/10 04:37:14;;;;;;;2.67;1.73;;;15.90;66.10;;;;;;6167523;23;20299;-74
2021/05/10 04:39:41;;;;;;;2.28;1.80;;;15.90;66.10;;;;;;6158760;23;20072;-74
2021/05/10 04:42:07;;;;;;;2.63;2.00;;;16.00;66.20;;;;;;6167745;23;20013;-74
2021/05/10 04:44:33;;;;;;;2.28;2.00;;;15.90;66.20;;;;;;6157766;23;20025;-74
2021/05/10 04:46:59;;;;;;;2.15;1.92;;;15.90;66.10;;;;;;6157860;23;20018;-74
2021/05/10 04:49:25;;;;;;;2.00;1.80;;;15.90;66.20;;;;;;6166717;23;20044;-75
2021/05/10 04:51:51;;;;;;;2.22;1.88;;;16.00;66.20;;;;;;6167787;23;20045;-74
2021/05/10 04:54:17;;;;;;;2.42;1.63;;;15.90;66.10;;;;;;6157788;23;20016;-74
2021/05/10 04:56:43;;;;;;;2.88;2.30;;;15.90;66.20;;;;;;6168493;23;20115;-74
2021/05/10 04:59:09;;;;;;;2.88;1.80;;;16.00;66.20;;;;;;6169606;23;20064;-74
2021/05/10 05:01:35;;;;;;;2.97;1.98;;;15.90;66.10;;;;;;6159801;23;20422;-75
2021/05/10 05:04:01;;;;;;;1.90;1.70;;;15.90;66.70;;;;;;6160441;23;20029;-74
2021/05/10 05:06:27;;;;;;;1.95;1.80;;;15.90;66.10;;;;;;6169607;23;20009;-75
2021/05/10 05:08:53;;;;;;;2.08;1.92;;;15.90;66.10;;;;;;6159783;23;20141;-75
2021/05/10 05:11:18;;;;;;;2.45;2.10;;;16.00;66.20;;;;;;6169372;23;20037;-75
2021/05/10 05:13:47;;;;;;;1.75;1.63;;;15.90;66.10;;;;;;6159754;23;20021;-74
2021/05/10 05:16:13;;;;;;;2.03;1.83;;;16.00;66.10;;;;;;6169642;23;20459;-75
2021/05/10 05:18:39;;;;;;;2.90;2.10;;;16.00;66.20;;;;;;6169151;23;20017;-75
2021/05/10 05:21:05;;;;;;;2.22;1.80;;;15.90;66.10;;;;;;6169771;23;20388;-75
2021/05/10 05:23:31;;;;;;;2.25;1.88;;;15.90;66.10;;;;;;6170252;23;20021;-75
2021/05/10 05:26:02;;;;;;;2.45;2.03;;;15.90;66.10;;;;;;6169681;23;20013;-75
2021/05/10 05:28:28;;;;;;;3.15;2.17;;;15.90;66.10;;;;;;6169759;23;20430;-75
2021/05/10 05:30:55;;;;;;;2.05;1.85;;;15.90;66.10;;;;;;6169947;23;20014;-75
2021/05/10 05:33:21;;;;;;;1.77;1.60;;;15.90;66.10;;;;;;6170191;23;20422;-75
2021/05/10 05:35:51;;;;;;;3.47;2.10;;;16.00;66.10;;;;;;6159645;23;20307;-74
2021/05/10 05:38:17;;;;;;;2.15;1.92;;;16.00;66.10;;;;;;6169459;23;20013;-74
2021/05/10 05:40:44;;;;;;;2.42;2.20;;;16.00;66.20;;;;;;6169901;23;20005;-74
2021/05/10 05:43:11;;;;;;;2.38;1.80;;;16.00;66.20;;;;;;6169337;23;20434;-75
2021/05/10 05:45:38;;;;;;;1.50;1.40;;;16.00;66.20;;;;;;6169819;23;20014;-74
2021/05/10 05:48:09;;;;;;;2.60;1.92;;;16.00;66.30;;;;;;6169337;23;20041;-75
2021/05/10 05:50:36;;;;;;;2.33;2.13;;;16.00;66.30;;;;;;6163780;23;20020;-75
2021/05/10 05:53:03;;;;;;;2.55;2.25;;;16.00;66.30;;;;;;6159410;23;20029;-74
2021/05/10 05:55:29;;;;;;;2.55;2.20;;;16.00;66.40;;;;;;6160167;23;20017;-74
2021/05/10 05:57:57;;;;;;;2.00;1.80;;;16.00;66.50;;;;;;6169928;23;20068;-74
2021/05/10 06:00:23;;;;;;;2.67;2.47;;;16.00;66.60;;;;;;6169008;23;20351;-75
2021/05/10 06:02:49;;;;;;;2.65;1.92;;;16.00;66.60;;;;;;6169170;23;20016;-75
2021/05/10 06:05:16;;;;;;;2.53;2.10;;;16.00;66.60;;;;;;6169303;23;20009;-75
2021/05/10 06:07:45;;;;;;;2.08;1.88;;;16.00;66.60;;;;;;6168896;23;20028;-75
2021/05/10 06:10:14;;;;;;;2.83;1.90;;;16.00;66.60;;;;;;6159435;23;20009;-75
2021/05/10 06:12:46;;;;;;;2.40;2.20;;;16.00;66.70;;;;;;6169204;23;20043;-74
2021/05/10 06:15:13;;;;;;;2.60;1.88;;;16.00;66.60;;;;;;6169404;23;20058;-75
2021/05/10 06:17:39;;;;;;;2.53;2.08;;;16.00;66.70;;;;;;6168994;23;20088;-74
2021/05/10 06:20:08;;;;;;;1.77;1.63;;;16.00;66.60;;;;;;6168975;23;20017;-75
2021/05/10 06:22:36;;;;;;;2.15;1.70;;;16.00;66.60;;;;;;6169277;23;20316;-75
2021/05/10 06:25:05;;;;;;;2.03;1.70;;;16.00;66.60;;;;;;6160039;23;20068;-75
2021/05/10 06:27:30;;;;;;;3.05;1.92;;;16.00;66.60;;;;;;6168850;23;20013;-74
2021/05/10 06:29:57;;;;;;;2.63;1.70;;;16.00;66.60;;;;;;6159106;23;20009;-75
2021/05/10 06:32:22;;;;;;;2.03;1.70;;;16.00;66.60;;;;;;6168701;23;20350;-74
2021/05/10 06:34:48;;;;;;;2.58;1.95;;;16.00;66.60;;;;;;6168974;23;20013;-74
2021/05/10 06:37:18;;;;;;;2.33;2.08;;;16.00;66.60;;;;;;6168561;23;20017;-75
2021/05/10 06:39:45;;;;;;;2.30;1.85;;;16.00;66.60;;;;;;6169489;23;20014;-75
2021/05/10 06:42:10;;;;;;;2.17;1.90;;;16.00;66.70;;;;;;6168400;23;20367;-75
2021/05/10 06:44:36;;;;;;;2.00;1.80;;;16.00;66.60;;;;;;6168845;23;20024;-74
2021/05/10 06:47:02;;;;;;;2.22;2.03;;;16.00;66.70;;;;;;6168759;23;20014;-75
2021/05/10 06:49:28;;;;;;;2.60;1.80;;;16.10;66.70;;;;;;6167115;23;20009;-74
2021/05/10 06:51:55;;;;;;;1.80;1.38;;;16.00;66.70;;;;;;6168395;23;20010;-74
2021/05/10 06:54:21;;;;;;;1.90;1.60;;;16.00;66.70;;;;;;6168631;23;20009;-75
2021/05/10 06:56:47;;;;;;;2.45;1.80;;;16.00;66.70;;;;;;6158414;23;20307;-74
2021/05/10 06:59:13;;;;;;;2.33;1.70;;;16.00;66.70;;;;;;6168877;23;20028;-75
2021/05/10 07:01:39;;;;;;;1.88;1.35;;;16.00;66.80;;;;;;6168339;23;20021;-75
2021/05/10 07:04:04;;;;;;;2.25;1.60;;;16.00;66.80;;;;;;6168340;23;20017;-75
2021/05/10 07:06:30;;;;;;;2.13;1.58;;;16.00;66.80;;;;;;6169448;23;20330;-75
2021/05/10 07:08:59;;;;;;;3.83;1.80;;;16.00;66.90;;;;;;6159322;23;20075;-74
2021/05/10 07:11:29;;;;;;;6.93;1.83;;;16.10;67.00;;;;;;6168868;23;20025;-75
2021/05/10 07:13:54;;;;;;;2.03;1.85;;;16.00;66.90;;;;;;6168834;23;20013;-74
2021/05/10 07:16:20;;;;;;;2.10;1.67;;;16.00;67.00;;;;;;6159587;23;20072;-75
2021/05/10 07:18:47;;;;;;;2.28;1.58;;;16.10;67.10;;;;;;6158215;23;20017;-75
2021/05/10 07:21:13;;;;;;;2.22;1.88;;;16.10;67.10;;;;;;6158660;23;20064;-74
2021/05/10 07:23:39;;;;;;;2.13;1.90;;;16.10;67.10;;;;;;6159085;23;20041;-75
2021/05/10 07:26:05;;;;;;;2.35;2.05;;;16.10;67.10;;;;;;6168731;23;20013;-75
2021/05/10 07:28:32;;;;;;;2.15;1.70;;;16.10;67.10;;;;;;6158092;23;20426;-75
2021/05/10 07:30:57;;;;;;;2.25;1.63;;;16.10;67.10;;;;;;6167933;23;20013;-75
2021/05/10 07:33:23;;;;;;;2.15;1.38;;;16.10;67.20;;;;;;6142682;23;20017;-75
2021/05/10 07:35:50;;;;;;;2.60;1.90;;;16.10;67.20;;;;;;6158696;23;20079;-74
2021/05/10 07:38:17;;;;;;;1.95;1.58;;;16.10;67.20;;;;;;6158390;23;20013;-74
2021/05/10 07:40:43;;;;;;;1.85;1.25;;;16.10;67.20;;;;;;6159591;23;20017;-75
2021/05/10 07:43:09;;;;;;;1.40;1.10;;;16.10;67.20;;;;;;6167864;23;20498;-75
2021/05/10 07:45:36;;;;;;;1.50;1.23;;;16.10;67.20;;;;;;6168858;23;20033;-74
2021/05/10 07:48:02;;;;;;;1.52;1.33;;;16.10;67.20;;;;;;6168183;23;20013;-74
2021/05/10 07:50:28;;;;;;;1.35;1.23;;;16.20;67.30;;;;;;6158645;23;20021;-74
2021/05/10 07:52:56;;;;;;;1.80;1.40;;;16.10;67.30;;;;;;6158442;23;20014;-75
2021/05/10 07:55:27;;;;;;;1.90;1.50;;;16.20;67.40;;;;;;6167727;23;20064;-75
2021/05/10 07:57:56;;;;;;;1.38;1.20;;;16.20;67.40;;;;;;6158199;23;20017;-75
2021/05/10 08:00:31;;;;;;;1.70;1.45;;;16.20;67.40;;;;;;6167712;23;20336;-75
2021/05/10 08:03:06;;;;;;;1.35;1.20;;;16.20;67.50;;;;;;6168153;23;20429;-74
2021/05/10 08:05:32;;;;;;;1.65;1.20;;;16.20;67.60;;;;;;6158072;23;20096;-74
2021/05/10 08:07:58;;;;;;;1.20;1.10;;;16.20;67.60;;;;;;6167649;23;20024;-75
2021/05/10 08:10:24;;;;;;;3.10;1.30;;;16.20;67.60;;;;;;6158281;23;20010;-74
2021/05/10 08:12:50;;;;;;;1.50;1.30;;;16.20;67.60;;;;;;6158241;23;20434;-75
2021/05/10 08:15:16;;;;;;;1.42;1.15;;;16.20;67.60;;;;;;6167999;23;20063;-75
2021/05/10 08:17:42;;;;;;;1.85;1.35;;;16.20;67.70;;;;;;6158767;23;20024;-75
2021/05/10 08:20:08;;;;;;;1.33;0.90;;;16.20;67.70;;;;;;6168224;23;20399;-75
2021/05/10 08:22:34;;;;;;;1.33;1.02;;;16.20;67.70;;;;;;6167868;23;20462;-74
2021/05/10 08:25:00;;;;;;;1.30;1.00;;;16.20;67.70;;;;;;6167898;23;20014;-75
2021/05/10 08:27:27;;;;;;;1.02;0.90;;;16.20;67.70;;;;;;6167958;23;20041;-75
2021/05/10 08:29:53;;;;;;;2.30;1.00;;;16.20;67.70;;;;;;6167847;23;20013;-75
2021/05/10 08:32:19;;;;;;;1.20;1.10;;;16.20;67.70;;;;;;6167807;23;20019;-75
2021/05/10 08:34:44;;;;;;;1.10;0.95;;;16.20;67.80;;;;;;6167918;23;20013;-74
2021/05/10 08:37:13;;;;;;;2.13;1.10;;;16.20;67.80;;;;;;6157942;23;20053;-75
2021/05/10 08:39:39;;;;;;;1.48;0.90;;;16.20;67.90;;;;;;6167764;23;20010;-75
2021/05/10 08:42:05;;;;;;;1.70;1.00;;;16.20;67.90;;;;;;6167993;23;20013;-74
2021/05/10 08:44:30;;;;;;;1.98;1.20;;;16.20;68.00;;;;;;6158588;23;20075;-75
2021/05/10 08:46:58;;;;;;;1.65;1.10;;;16.20;68.00;;;;;;6157932;23;20037;-75
2021/05/10 08:49:24;;;;;;;1.17;0.90;;;16.20;68.10;;;;;;6166035;23;20133;-75
2021/05/10 08:51:51;;;;;;;1.75;1.00;;;16.20;68.10;;;;;;6158368;23;20009;-75
2021/05/10 08:54:27;;;;;;;2.47;1.10;;;16.20;68.10;;;;;;6157960;23;20017;-75
2021/05/10 08:56:54;;;;;;;2.00;0.90;;;16.20;68.10;;;;;;6167872;23;20124;-75
2021/05/10 08:59:23;;;;;;;1.27;0.98;;;16.20;68.10;;;;;;6168372;23;20017;-75
2021/05/10 09:02:02;;;;;;;2.63;0.98;;;16.20;68.10;;;;;;6167909;23;20021;-75
2021/05/10 09:04:33;;;;;;;1.60;0.77;;;16.20;68.10;;;;;;6157831;23;20022;-75
2021/05/10 09:07:23;;;;;;;2.50;1.20;;;16.20;68.20;;;;;;6167758;23;20010;-75
2021/05/10 09:09:53;;;;;;;2.17;0.90;;;16.20;68.20;;;;;;6167282;23;20351;-75
2021/05/10 09:12:20;;;;;;;1.67;1.23;;;16.20;68.30;;;;;;6168133;23;20040;-75
2021/05/10 09:14:47;;;;;;;2.35;1.13;;;16.20;68.30;;;;;;6168070;23;20018;-75
2021/05/10 09:17:13;;;;;;;1.70;0.90;;;16.20;68.30;;;;;;6167914;23;20009;-74
2021/05/10 09:19:49;;;;;;;1.45;1.05;;;16.20;68.30;;;;;;6167246;23;20306;-75
2021/05/10 09:22:15;;;;;;;1.17;0.90;;;16.30;68.40;;;;;;6167672;23;20399;-75
2021/05/10 09:24:46;;;;;;;1.02;0.77;;;16.20;68.30;;;;;;6167342;23;20028;-75
2021/05/10 09:27:30;;;;;;;1.23;0.98;;;16.30;68.30;;;;;;6168392;23;20287;-74
2021/05/10 09:30:15;;;;;;;0.80;0.70;;;16.30;68.30;;;;;;6167429;23;20446;-75
2021/05/10 09:32:52;;;;;;;1.20;0.80;;;16.30;68.30;;;;;;6167224;23;20088;-75
2021/05/10 09:35:20;;;;;;;1.45;0.80;;;16.30;68.30;;;;;;6167311;23;20013;-75
2021/05/10 09:37:56;;;;;;;0.90;0.80;;;16.30;68.40;;;;;;6157784;23;20088;-75
2021/05/10 09:40:23;;;;;;;0.75;0.50;;;16.30;68.30;;;;;;6157655;23;20014;-75
2021/05/10 09:42:55;;;;;;;1.10;0.77;;;16.30;68.40;;;;;;6168856;23;20020;-75
2021/05/10 09:45:29;;;;;;;1.50;0.83;;;16.30;68.40;;;;;;6159429;23;20024;-75
2021/05/10 09:48:19;;;;;;;0.82;0.65;;;16.30;68.40;;;;;;6160068;23;20079;-75
2021/05/10 09:50:58;;;;;;;1.23;0.73;;;16.30;68.30;;;;;;6163162;23;20084;-75
2021/05/10 09:53:32;;;;;;;1.15;0.73;;;16.30;68.40;;;;;;6169299;23;20024;-75
2021/05/10 09:55:59;;;;;;;1.08;0.60;;;16.30;68.40;;;;;;6169264;23;20450;-75
2021/05/10 09:58:36;;;;;;;0.80;0.60;;;16.30;69.00;;;;;;6169251;23;20087;-75
2021/05/10 10:01:03;;;;;;;0.80;0.65;;;16.30;68.40;;;;;;6169130;23;20010;-75
2021/05/10 10:03:31;;;;;;;1.48;0.60;;;16.40;68.50;;;;;;6169498;23;20088;-75
2021/05/10 10:06:00;;;;;;;2.53;0.68;;;16.30;68.50;;;;;;6159593;23;20010;-75
2021/05/10 10:08:27;;;;;;;0.88;0.73;;;16.30;68.50;;;;;;6159906;23;20010;-75
2021/05/10 10:10:54;;;;;;;1.33;0.77;;;16.30;68.50;;;;;;6168690;23;20411;-74
2021/05/10 10:13:20;;;;;;;1.45;0.63;;;16.30;68.50;;;;;;6169394;23;20025;-75
2021/05/10 10:15:47;;;;;;;1.45;0.60;;;16.30;68.50;;;;;;6169140;23;20066;-75
2021/05/10 10:18:16;;;;;;;1.65;0.65;;;16.40;68.50;;;;;;6168686;23;20028;-74
2021/05/10 10:20:43;;;;;;;1.33;0.60;;;16.40;68.60;;;;;;6133673;23;20120;-75
2021/05/10 10:23:11;;;;;;;0.85;0.50;;;16.40;68.60;;;;;;6168985;23;20419;-75
2021/05/10 10:25:38;;;;;;;0.98;0.73;;;16.30;68.50;;;;;;6169019;23;20009;-75
2021/05/10 10:28:08;;;;;;;1.42;0.60;;;16.30;68.50;;;;;;6143194;23;20020;-75
2021/05/10 10:30:40;;;;;;;1.20;0.63;;;16.30;68.50;;;;;;6169061;23;20036;-75
2021/05/10 10:33:11;;;;;;;1.33;0.63;;;16.40;68.50;;;;;;6169524;23;20009;-75
2021/05/10 10:35:41;;;;;;;1.08;0.65;;;16.40;68.60;;;;;;6168604;23;20423;-74
2021/05/10 10:38:07;;;;;;;1.48;0.63;;;16.40;68.50;;;;;;6169609;23;20013;-75
2021/05/10 10:40:33;;;;;;;1.45;0.65;;;16.40;68.60;;;;;;6159556;23;20422;-75
2021/05/10 10:43:24;;;;;;;0.90;0.60;;;16.30;68.50;;;;;;6168922;23;20028;-75
2021/05/10 10:46:17;;;;;;;1.02;0.60;;;16.40;68.50;;;;;;6158348;23;20017;-75
2021/05/10 10:48:47;;;;;;;0.87;0.57;;;16.40;68.50;;;;;;6168783;23;20069;-75
2021/05/10 10:51:15;;;;;;;1.35;0.60;;;16.40;68.60;;;;;;6160604;23;20241;-74
2021/05/10 10:53:42;;;;;;;1.23;0.50;;;16.40;68.60;;;;;;6158132;23;20419;-75
2021/05/10 10:56:08;;;;;;;1.50;0.55;;;16.40;68.60;;;;;;6168641;23;20014;-75
2021/05/10 10:58:34;;;;;;;2.45;0.65;;;16.40;68.60;;;;;;6168922;23;20273;-75
2021/05/10 11:01:08;;;;;;;0.70;0.55;;;16.30;68.50;;;;;;6159649;23;20013;-75
2021/05/10 11:03:35;;;;;;;1.08;0.60;;;16.40;68.60;;;;;;6168706;23;20079;-75
2021/05/10 11:06:02;;;;;;;1.67;0.60;;;16.40;69.20;;;;;;6168360;23;20297;-75
2021/05/10 11:08:40;;;;;;;0.80;0.40;;;16.40;68.60;;;;;;6168189;23;20013;-75
2021/05/10 11:11:07;;;;;;;1.20;0.55;;;16.40;68.50;;;;;;6168488;23;20032;-75
2021/05/10 11:13:36;;;;;;;1.10;0.75;;;16.40;68.60;;;;;;6168580;23;20013;-75
2021/05/10 11:16:09;;;;;;;1.48;0.50;;;16.40;68.60;;;;;;6168407;23;20427;-75
2021/05/10 11:18:48;;;;;;;0.95;0.50;;;16.40;68.50;;;;;;6168123;23;20021;-75
2021/05/10 11:21:38;;;;;;;1.15;0.60;;;16.40;68.50;;;;;;6169010;23;20013;-75
2021/05/10 11:24:09;;;;;;;1.90;0.50;;;16.40;68.40;;;;;;6145162;23;20080;-75
2021/05/10 11:26:34;;;;;;;1.45;0.60;;;16.40;68.50;;;;;;6168452;23;20076;-75
2021/05/10 11:29:00;;;;;;;1.60;0.70;;;16.40;68.50;;;;;;6168415;23;20017;-75
2021/05/10 11:31:38;;;;;;;1.40;0.57;;;16.40;68.50;;;;;;6158449;23;20024;-75
2021/05/10 11:34:09;;;;;;;1.98;0.75;;;16.40;68.40;;;;;;6157181;23;20070;-75
2021/05/10 11:36:51;;;;;;;2.35;0.60;;;16.40;68.50;;;;;;6168766;23;20072;-75
2021/05/10 11:39:24;;;;;;;1.55;0.60;;;16.40;68.40;;;;;;6168305;23;20096;-74
2021/05/10 11:41:58;;;;;;;2.33;0.70;;;16.40;68.50;;;;;;6168887;23;20053;-75
2021/05/10 11:44:38;;;;;;;1.42;0.57;;;16.40;68.50;;;;;;6159288;23;20023;-75
2021/05/10 11:47:07;;;;;;;0.70;0.50;;;16.40;68.50;;;;;;6168074;23;20021;-75
2021/05/10 11:49:38;;;;;;;3.08;0.68;;;16.40;68.50;;;;;;6166148;23;20017;-75
2021/05/10 11:52:19;;;;;;;2.08;0.73;;;16.40;68.50;;;;;;6168197;23;20017;-74
2021/05/10 11:54:51;;;;;;;3.03;0.70;;;16.40;68.50;;;;;;6168171;23;20076;-74
2021/05/10 11:57:25;;;;;;;1.38;0.70;;;16.40;68.50;;;;;;6168502;23;20089;-75
2021/05/10 11:59:55;;;;;;;1.95;0.65;;;16.40;68.50;;;;;;6158066;23;20311;-74
2021/05/10 12:02:27;;;;;;;1.65;0.90;;;16.40;68.50;;;;;;6168386;23;20080;-76
2021/05/10 12:05:07;;;;;;;1.20;0.60;;;16.40;68.50;;;;;;6168756;23;20088;-75
2021/05/10 12:07:34;;;;;;;1.58;0.60;;;16.50;68.50;;;;;;6168151;23;20329;-75
2021/05/10 12:10:08;;;;;;;1.92;0.80;;;16.40;68.50;;;;;;6168362;23;20009;-75
2021/05/10 12:12:41;;;;;;;1.75;0.70;;;16.40;68.50;;;;;;6158094;23;20020;-75
2021/05/10 12:15:17;;;;;;;1.35;0.95;;;16.50;68.50;;;;;;6167991;23;20016;-74
2021/05/10 12:17:45;;;;;;;1.65;0.70;;;16.50;68.40;;;;;;6168242;23;20055;-75
2021/05/10 12:20:30;;;;;;;1.40;0.80;;;16.50;68.40;;;;;;6168653;23;20021;-75
2021/05/10 12:22:57;;;;;;;1.67;0.82;;;16.50;68.50;;;;;;6167975;23;20010;-75
2021/05/10 12:25:29;;;;;;;1.80;0.70;;;16.40;68.40;;;;;;6168605;23;20072;-75
2021/05/10 12:27:57;;;;;;;1.70;0.80;;;16.50;68.40;;;;;;6168287;23;20395;-75
2021/05/10 12:30:30;;;;;;;1.60;0.63;;;16.50;69.10;;;;;;6168100;23;20010;-75
2021/05/10 12:33:04;;;;;;;2.63;0.88;;;16.50;68.40;;;;;;6168722;23;20037;-75
2021/05/10 12:35:32;;;;;;;2.08;0.90;;;16.50;68.40;;;;;;6142390;23;20017;-75
2021/05/10 12:38:01;;;;;;;1.85;0.80;;;16.50;68.40;;;;;;6168018;23;20014;-75
2021/05/10 12:40:38;;;;;;;1.13;0.60;;;16.50;68.40;;;;;;6167902;23;20017;-75
2021/05/10 12:43:14;;;;;;;2.22;1.05;;;16.50;68.40;;;;;;6163156;23;20020;-75
2021/05/10 12:46:03;;;;;;;2.13;0.75;;;16.50;68.40;;;;;;6167495;23;20272;-75
2021/05/10 12:48:35;;;;;;;1.98;0.65;;;16.50;68.40;;;;;;6142449;23;20051;-75
2021/05/10 12:51:04;;;;;;;1.40;0.60;;;16.50;68.40;;;;;;6160811;23;20018;-75
2021/05/10 12:53:37;;;;;;;1.52;0.50;;;16.50;68.50;;;;;;6167819;23;20037;-75
2021/05/10 12:56:04;;;;;;;2.63;0.98;;;16.50;68.50;;;;;;6157452;23;20307;-75
2021/05/10 12:58:38;;;;;;;2.33;1.00;;;16.50;68.50;;;;;;6157693;23;20133;-75
2021/05/10 13:01:18;;;;;;;2.00;0.68;;;16.50;68.50;;;;;;6167693;23;20101;-75
2021/05/10 13:03:45;;;;;;;1.73;0.60;;;16.50;68.50;;;;;;6158824;23;20036;-75